Time;durP1;ratioP1;P1;durP2;ratioP2;P2;SDS_P1;SDS_P2;PMS_P1;PMS_P2;Temp;Humidity;BMP_temperature;BMP_pressure;BME280_temperature;BME280_humidity;BME280_pressure;Samples;Min_cycle;Max_cycle;Signal;HPM_P1;HPM_P2
2023/05/15 00:03:04;;;;;;;6.30;5.63;;;;;;;15.44;58.40;98335.22;6970266;28;21080;-84
2023/05/15 00:06:26;;;;;;;7.20;6.37;;;;;;;15.46;59.01;98329.53;6951118;28;20586;-84
2023/05/15 00:09:49;;;;;;;8.17;5.67;;;;;;;15.65;58.27;98329.03;6951269;28;20696;-84
2023/05/15 00:13:11;;;;;;;8.93;5.97;;;;;;;15.26;58.25;98267.53;6950214;28;20300;-84
2023/05/15 00:16:32;;;;;;;7.23;6.20;;;;;;;14.97;59.80;98327.56;6950007;28;20310;-84
2023/05/15 00:19:56;;;;;;;6.30;5.70;;;;;;;15.31;58.76;98283.91;6965132;28;20226;-84
2023/05/15 00:23:17;;;;;;;6.83;6.13;;;;;;;15.56;57.90;98297.91;6977441;28;20203;-84
2023/05/15 00:26:40;;;;;;;6.57;5.73;;;;;;;15.75;58.17;98325.66;6977980;28;20700;-85
2023/05/15 00:30:02;;;;;;;6.73;6.13;;;;;;;15.81;57.98;98328.16;6978111;28;20320;-84
2023/05/15 00:33:23;;;;;;;7.43;6.37;;;;;;;15.78;58.00;98323.25;6977013;28;20419;-84
2023/05/15 00:36:45;;;;;;;8.87;6.07;;;;;;;15.66;57.97;98310.81;6976060;28;20249;-84
2023/05/15 00:40:08;;;;;;;6.73;6.10;;;;;;;15.49;57.76;98263.81;6977419;28;20317;-84
2023/05/15 00:43:32;;;;;;;7.73;6.53;;;;;;;15.23;58.01;98221.84;6977446;28;20548;-84
2023/05/15 00:46:54;;;;;;;8.00;7.20;;;;;;;15.82;58.29;98308.06;6977288;28;20276;-84
2023/05/15 00:50:16;;;;;;;9.47;7.27;;;;;;;15.69;58.92;98299.47;6977037;28;20643;-85
2023/05/15 00:53:37;;;;;;;7.77;6.97;;;;;;;15.86;59.12;98311.94;6976144;28;20275;-84
2023/05/15 00:56:59;;;;;;;7.23;6.43;;;;;;;15.99;59.25;98313.50;6975112;28;20222;-84
2023/05/15 01:00:22;;;;;;;7.93;6.80;;;;;;;15.48;59.71;98327.38;6976654;28;20214;-84
2023/05/15 01:03:51;;;;;;;8.00;7.10;;;;;;;15.35;60.11;98306.84;6975242;28;20293;-84
2023/05/15 01:07:12;;;;;;;8.40;7.17;;;;;;;15.14;60.34;98252.38;6977160;28;20297;-84
2023/05/15 01:10:35;;;;;;;8.23;6.80;;;;;;;15.32;60.10;98254.84;6976565;28;20376;-86
2023/05/15 01:13:57;;;;;;;8.60;6.80;;;;;;;15.51;60.20;98305.97;6975100;28;20207;-84
2023/05/15 01:17:19;;;;;;;8.57;6.87;;;;;;;16.05;58.83;98326.06;6976433;28;20234;-84
2023/05/15 01:20:50;;;;;;;7.30;6.20;;;;;;;16.25;58.36;98335.31;6976803;28;20248;-85
2023/05/15 01:24:24;;;;;;;7.43;6.73;;;;;;;15.84;58.64;98332.28;6976228;28;20202;-84
2023/05/15 01:27:49;;;;;;;8.20;7.37;;;;;;;15.76;59.13;98328.09;6976284;28;20326;-83
2023/05/15 01:31:16;;;;;;;7.83;7.10;;;;;;;15.93;58.99;98315.28;6976536;28;20264;-85
2023/05/15 01:34:44;;;;;;;9.50;7.03;;;;;;;15.25;59.50;98227.03;6975863;28;20212;-84
2023/05/15 01:38:13;;;;;;;8.00;6.87;;;;;;;15.60;59.35;98290.06;6976439;28;20226;-84
2023/05/15 01:41:36;;;;;;;7.43;6.70;;;;;;;15.89;58.93;98297.84;6976666;28;20303;-84
2023/05/15 01:45:02;;;;;;;8.77;6.10;;;;;;;16.12;58.20;98318.56;6975815;28;20333;-84
2023/05/15 01:48:26;;;;;;;6.97;6.27;;;;;;;16.16;57.50;98317.78;6976079;28;20270;-85
2023/05/15 01:51:51;;;;;;;6.43;5.83;;;;;;;16.00;57.72;98313.25;6975879;28;20203;-84
2023/05/15 01:55:13;;;;;;;7.83;5.67;;;;;;;15.97;58.20;98313.72;6974734;28;20387;-84
2023/05/15 01:58:37;;;;;;;7.57;6.37;;;;;;;15.68;58.46;98306.78;6976060;28;20687;-84
2023/05/15 02:02:00;;;;;;;8.13;7.30;;;;;;;15.64;59.25;98307.53;6974949;28;20274;-85
2023/05/15 02:05:27;;;;;;;7.63;6.43;;;;;;;15.78;59.13;98325.97;6974690;28;20298;-84
2023/05/15 02:08:49;;;;;;;7.60;6.80;;;;;;;15.46;59.92;98300.47;6976891;28;20240;-84
2023/05/15 02:12:11;;;;;;;8.27;7.20;;;;;;;15.17;60.12;98260.03;6976195;28;20356;-84
2023/05/15 02:15:33;;;;;;;9.37;7.50;;;;;;;15.37;60.61;98326.41;6976097;28;20308;-84
2023/05/15 02:18:56;;;;;;;9.13;7.47;;;;;;;15.57;60.72;98323.19;6978154;28;20202;-85
2023/05/15 02:22:17;;;;;;;7.07;6.37;;;;;;;16.07;59.31;98323.91;6985261;28;20343;-84
2023/05/15 02:25:46;;;;;;;8.07;7.27;;;;;;;15.43;59.76;98251.25;6985383;28;20242;-84
2023/05/15 02:29:15;;;;;;;7.83;7.13;;;;;;;16.01;58.93;98290.41;6985354;28;20291;-85
2023/05/15 02:32:42;;;;;;;7.77;6.83;;;;;;;16.33;57.61;98306.88;6985439;28;20268;-84
2023/05/15 02:36:08;;;;;;;11.73;7.80;;;;;;;15.55;59.81;98319.88;6984434;28;20608;-84
2023/05/15 02:39:30;;;;;;;8.87;7.70;;;;;;;15.57;60.47;98331.34;6985256;28;20335;-85
2023/05/15 02:42:53;;;;;;;9.03;8.13;;;;;;;15.75;60.52;98315.56;6985034;28;20207;-84
2023/05/15 02:46:15;;;;;;;8.87;8.00;;;;;;;15.86;60.08;98316.56;6984954;28;20308;-84
2023/05/15 02:49:36;;;;;;;8.50;7.70;;;;;;;15.86;60.14;98324.72;6985110;28;20308;-84
2023/05/15 02:53:08;;;;;;;8.40;7.57;;;;;;;16.03;59.96;98320.03;6984312;28;20294;-84
2023/05/15 02:56:30;;;;;;;8.17;7.17;;;;;;;16.19;59.33;98321.91;6984736;28;20255;-84
2023/05/15 02:59:52;;;;;;;7.90;7.10;;;;;;;15.86;59.14;98309.22;6977199;28;20846;-83
2023/05/15 03:03:21;;;;;;;7.33;6.53;;;;;;;16.29;58.15;98313.88;6956589;28;20286;-85
2023/05/15 03:06:42;;;;;;;8.27;7.07;;;;;;;16.03;58.34;98311.88;6979432;28;20341;-84
2023/05/15 03:10:06;;;;;;;8.37;7.57;;;;;;;15.79;59.74;98318.63;6985553;28;20275;-85
2023/05/15 03:13:28;;;;;;;8.13;7.23;;;;;;;16.06;59.30;98317.69;6984567;28;20260;-85
2023/05/15 03:16:49;;;;;;;8.03;7.27;;;;;;;16.27;58.80;98314.13;6983219;28;20767;-84
2023/05/15 03:20:12;;;;;;;9.17;7.77;;;;;;;15.86;58.68;98322.00;6986274;28;20568;-84
2023/05/15 03:23:34;;;;;;;7.97;7.17;;;;;;;15.63;59.58;98306.72;6985600;28;20206;-84
2023/05/15 03:26:57;;;;;;;8.77;7.27;;;;;;;15.81;59.42;98316.50;6986391;28;20374;-84
2023/05/15 03:30:18;;;;;;;9.73;7.00;;;;;;;15.98;59.20;98314.56;6984881;28;20250;-85
2023/05/15 03:33:42;;;;;;;7.40;6.70;;;;;;;16.11;58.32;98320.44;6982259;28;20291;-84
2023/05/15 03:37:03;;;;;;;7.73;6.93;;;;;;;16.03;57.73;98301.00;6983100;28;20227;-84
2023/05/15 03:40:25;;;;;;;7.37;6.57;;;;;;;16.15;57.81;98316.16;6984579;28;20257;-83
2023/05/15 03:43:48;;;;;;;7.07;6.47;;;;;;;16.20;57.44;98339.84;6983936;28;20257;-84
2023/05/15 03:47:09;;;;;;;8.00;7.20;;;;;;;15.91;58.41;98312.00;6983291;28;20658;-84
2023/05/15 03:50:31;;;;;;;7.30;6.60;;;;;;;15.92;58.58;98321.81;6981002;28;20366;-84
2023/05/15 03:53:52;;;;;;;7.37;6.63;;;;;;;15.69;59.27;98316.56;6981106;28;20756;-84
2023/05/15 03:57:14;;;;;;;8.10;6.70;;;;;;;15.59;58.49;98262.09;6979994;28;20238;-84
2023/05/15 04:00:37;;;;;;;7.57;6.67;;;;;;;15.73;58.86;98319.63;6981691;28;20295;-85
2023/05/15 04:03:58;;;;;;;8.43;6.87;;;;;;;15.32;58.74;98260.25;6973716;28;20245;-85
2023/05/15 04:07:20;;;;;;;7.93;7.13;;;;;;;15.43;60.20;98302.84;6954978;28;20314;-84
2023/05/15 04:10:41;;;;;;;8.07;7.27;;;;;;;15.22;59.94;98268.28;6978444;28;20748;-84
2023/05/15 04:14:03;;;;;;;11.13;7.07;;;;;;;15.58;59.06;98303.09;6980492;28;20299;-83
2023/05/15 04:17:26;;;;;;;7.70;7.00;;;;;;;15.63;59.75;98316.78;6981401;28;20560;-85
2023/05/15 04:20:47;;;;;;;9.60;7.40;;;;;;;15.56;60.20;98318.81;6975847;28;20282;-85
2023/05/15 04:24:09;;;;;;;9.97;8.27;;;;;;;15.10;60.82;98272.97;6952510;28;20293;-85
2023/05/15 04:27:30;;;;;;;9.83;7.30;;;;;;;14.95;60.00;98183.97;6952519;28;20266;-84
2023/05/15 04:30:52;;;;;;;8.60;6.73;;;;;;;16.15;58.72;98321.59;6952815;28;20245;-84
2023/05/15 04:34:15;;;;;;;8.37;7.17;;;;;;;16.07;58.56;98326.63;6954984;28;20338;-85
2023/05/15 04:37:37;;;;;;;6.40;5.90;;;;;;;16.35;57.53;98332.72;6978757;28;20687;-86
2023/05/15 04:40:59;;;;;;;7.17;6.47;;;;;;;16.23;57.41;98326.56;6981286;28;20374;-83
2023/05/15 04:44:20;;;;;;;9.90;6.97;;;;;;;16.22;57.06;98335.00;6978424;28;20293;-83
2023/05/15 04:47:42;;;;;;;7.33;6.30;;;;;;;16.29;57.66;98319.31;6978619;28;20287;-82
2023/05/15 04:51:04;;;;;;;7.97;6.70;;;;;;;16.12;57.76;98332.16;6978353;28;20254;-83
2023/05/15 04:54:26;;;;;;;8.10;7.40;;;;;;;15.81;58.54;98305.63;6965282;28;20204;-82
2023/05/15 04:57:47;;;;;;;7.67;6.80;;;;;;;15.85;59.72;98326.59;6975122;28;20277;-83
2023/05/15 05:01:09;;;;;;;8.80;7.43;;;;;;;15.41;60.38;98284.09;6959465;28;20678;-81
2023/05/15 05:04:30;;;;;;;10.37;7.57;;;;;;;15.90;59.38;98290.50;6964921;28;20231;-82
2023/05/15 05:07:53;;;;;;;14.13;8.00;;;;;;;16.27;58.97;98337.81;6950855;28;20370;-82
2023/05/15 05:11:15;;;;;;;8.47;7.70;;;;;;;16.28;59.79;98348.41;6950373;28;20386;-82
2023/05/15 05:14:39;;;;;;;8.60;7.70;;;;;;;16.17;59.37;98348.53;6976032;28;20235;-83
2023/05/15 05:18:00;;;;;;;12.07;8.13;;;;;;;16.14;58.77;98309.06;6976473;28;20837;-83
2023/05/15 05:21:22;;;;;;;9.37;8.37;;;;;;;16.46;58.97;98329.06;6954799;28;20255;-83
2023/05/15 05:24:45;;;;;;;11.13;7.83;;;;;;;17.11;57.12;98335.22;6976794;28;20203;-83
2023/05/15 05:28:06;;;;;;;7.73;7.03;;;;;;;17.28;56.76;98340.59;6962528;28;20416;-83
2023/05/15 05:31:28;;;;;;;8.03;7.13;;;;;;;17.73;54.95;98349.16;6958012;28;20314;-83
2023/05/15 05:34:49;;;;;;;7.70;7.00;;;;;;;18.11;54.27;98360.59;6967056;28;20208;-84
2023/05/15 05:38:11;;;;;;;7.60;6.90;;;;;;;17.34;54.68;98206.81;6977415;28;20232;-80
2023/05/15 05:41:34;;;;;;;7.53;6.80;;;;;;;18.69;53.36;98343.19;7000397;28;20669;-84
2023/05/15 05:44:56;;;;;;;7.97;7.10;;;;;;;18.65;52.88;98336.59;7004622;28;20201;-85
2023/05/15 05:48:17;;;;;;;8.37;7.50;;;;;;;18.03;53.96;98347.47;7004718;28;20218;-86
2023/05/15 05:51:39;;;;;;;9.17;7.20;;;;;;;18.04;53.85;98335.44;7005043;28;20280;-83
2023/05/15 05:55:00;;;;;;;8.07;7.30;;;;;;;18.13;53.99;98343.97;6990771;28;20207;-84
2023/05/15 05:58:23;;;;;;;7.90;7.20;;;;;;;17.84;53.96;98277.22;6977125;28;20303;-85
2023/05/15 06:01:45;;;;;;;7.70;6.90;;;;;;;18.14;54.08;98340.16;7005152;28;20617;-88
2023/05/15 06:05:07;;;;;;;8.50;7.70;;;;;;;18.14;53.79;98338.25;6997617;28;20292;-85
2023/05/15 06:08:29;;;;;;;8.93;8.03;;;;;;;18.33;53.90;98309.44;7000160;28;20244;-85
2023/05/15 06:11:51;;;;;;;8.13;7.33;;;;;;;19.19;53.08;98332.34;6969926;28;20237;-85
2023/05/15 06:15:14;;;;;;;8.83;7.93;;;;;;;18.91;53.33;98339.16;6982382;28;20782;-85
2023/05/15 06:18:35;;;;;;;8.70;7.83;;;;;;;19.71;51.58;98335.69;6976087;28;20228;-84
2023/05/15 06:21:57;;;;;;;8.40;7.60;;;;;;;20.11;50.45;98344.69;6973960;28;20793;-85
2023/05/15 06:25:19;;;;;;;9.93;7.70;;;;;;;19.95;50.48;98336.75;6975760;28;20198;-84
2023/05/15 06:28:40;;;;;;;8.37;7.57;;;;;;;19.45;51.79;98342.28;6972929;28;20624;-84
2023/05/15 06:32:03;;;;;;;11.13;7.37;;;;;;;19.82;50.75;98338.13;6975095;28;20287;-83
2023/05/15 06:35:25;;;;;;;9.80;7.70;;;;;;;19.70;51.45;98340.34;6974872;28;20731;-83
2023/05/15 06:38:46;;;;;;;9.80;8.80;;;;;;;20.24;50.24;98335.09;6976102;28;20210;-82
2023/05/15 06:42:08;;;;;;;10.67;8.20;;;;;;;20.27;49.03;98236.78;6964274;28;20281;-84
2023/05/15 06:45:30;;;;;;;9.03;8.23;;;;;;;20.76;48.03;98317.06;6967615;28;20219;-85
2023/05/15 06:48:53;;;;;;;7.60;6.90;;;;;;;20.38;46.61;98194.56;6972742;28;20287;-83
2023/05/15 06:52:14;;;;;;;7.40;6.50;;;;;;;20.93;47.15;98308.53;6946467;28;20241;-83
2023/05/15 06:55:37;;;;;;;7.30;6.60;;;;;;;21.31;46.63;98325.78;6947940;28;20215;-83
2023/05/15 06:58:58;;;;;;;7.37;6.67;;;;;;;20.30;47.73;98345.75;6947693;28;20226;-83
2023/05/15 07:02:20;;;;;;;8.10;6.27;;;;;;;20.89;47.97;98340.31;6946606;28;20672;-83
2023/05/15 07:05:42;;;;;;;7.53;6.80;;;;;;;21.73;45.48;98339.75;6948817;28;20227;-83
2023/05/15 07:09:05;;;;;;;10.00;6.20;;;;;;;21.83;45.81;98328.69;6951816;28;20208;-83
2023/05/15 07:12:26;;;;;;;5.90;5.40;;;;;;;22.04;44.86;98288.13;6952335;28;20234;-83
2023/05/15 07:15:48;;;;;;;5.70;5.07;;;;;;;22.40;42.95;98336.88;6965255;28;20308;-83
2023/05/15 07:19:09;;;;;;;5.80;5.30;;;;;;;21.85;42.93;98210.38;6966242;28;20240;-83
2023/05/15 07:22:32;;;;;;;7.00;6.30;;;;;;;21.24;44.49;98267.72;6980514;28;20289;-84
2023/05/15 07:25:54;;;;;;;6.80;6.20;;;;;;;22.56;43.04;98337.56;6979394;28;20230;-83
2023/05/15 07:29:16;;;;;;;6.33;5.83;;;;;;;23.40;42.42;98321.00;6978614;28;20685;-84
2023/05/15 07:32:37;;;;;;;6.20;5.60;;;;;;;21.76;43.37;98261.50;6979683;28;20878;-85
2023/05/15 07:35:59;;;;;;;6.30;5.70;;;;;;;22.45;42.95;98300.31;6959465;28;20232;-83
2023/05/15 07:39:22;;;;;;;6.80;5.17;;;;;;;22.21;41.38;98272.84;6953311;28;20216;-84
2023/05/15 07:42:44;;;;;;;7.57;5.20;;;;;;;22.85;41.38;98308.03;6962786;28;20204;-83
2023/05/15 07:46:06;;;;;;;8.07;5.73;;;;;;;23.00;40.98;98330.63;6959125;28;20225;-85
2023/05/15 07:49:27;;;;;;;6.07;5.40;;;;;;;23.41;40.50;98301.44;6962761;28;20267;-85
2023/05/15 07:52:49;;;;;;;5.27;4.87;;;;;;;22.99;39.83;98230.03;6978496;28;20210;-85
2023/05/15 07:56:11;;;;;;;5.23;4.10;;;;;;;23.70;39.84;98326.84;6977797;28;20253;-85
2023/05/15 07:59:33;;;;;;;5.57;5.07;;;;;;;23.39;39.92;98325.69;6979103;28;20298;-84
2023/05/15 08:02:55;;;;;;;6.40;5.73;;;;;;;23.05;40.31;98297.56;6978797;28;20291;-85
2023/05/15 08:06:16;;;;;;;6.27;5.07;;;;;;;24.33;39.17;98325.16;6968626;28;20232;-85
2023/05/15 08:09:38;;;;;;;4.93;4.53;;;;;;;24.27;38.40;98315.38;6967861;28;20686;-84
2023/05/15 08:13:01;;;;;;;5.30;4.90;;;;;;;23.35;41.00;98315.56;6963777;28;20252;-85
2023/05/15 08:16:22;;;;;;;6.27;5.67;;;;;;;23.29;40.44;98281.81;6965015;28;20288;-85
2023/05/15 08:19:44;;;;;;;5.60;5.10;;;;;;;22.79;41.72;98311.97;6951010;28;20291;-85
2023/05/15 08:23:05;;;;;;;6.73;5.17;;;;;;;22.23;43.31;98336.53;6950971;28;20751;-84
2023/05/15 08:26:27;;;;;;;5.40;4.90;;;;;;;22.11;43.25;98321.53;6951835;28;20257;-85
2023/05/15 08:29:50;;;;;;;5.30;4.80;;;;;;;21.94;41.91;98310.19;6957370;28;20250;-85
2023/05/15 08:33:11;;;;;;;5.73;5.10;;;;;;;22.68;41.22;98310.47;6977683;28;20234;-85
2023/05/15 08:36:33;;;;;;;5.33;4.90;;;;;;;22.76;41.09;98302.38;6976069;28;20319;-82
2023/05/15 08:39:55;;;;;;;5.73;5.23;;;;;;;22.38;42.50;98311.63;6978282;28;20229;-84
2023/05/15 08:43:17;;;;;;;6.00;5.47;;;;;;;22.37;41.29;98304.47;6966294;28;20229;-84
2023/05/15 08:46:41;;;;;;;5.43;4.40;;;;;;;22.48;41.16;98297.00;6950153;28;20371;-83
2023/05/15 08:50:06;;;;;;;5.40;4.90;;;;;;;23.74;38.59;98297.59;6955713;28;20333;-82
2023/05/15 08:53:29;;;;;;;4.30;3.90;;;;;;;24.81;38.49;98301.59;6951801;28;20254;-84
2023/05/15 08:56:50;;;;;;;4.90;4.37;;;;;;;25.08;36.57;98293.25;6950997;28;20319;-83
2023/05/15 09:00:13;;;;;;;4.73;4.33;;;;;;;25.11;35.96;98298.16;6954539;28;20299;-84
2023/05/15 09:03:36;;;;;;;3.93;3.63;;;;;;;25.43;36.46;98303.47;6977479;28;20204;-84
2023/05/15 09:06:59;;;;;;;5.73;4.93;;;;;;;25.04;35.84;98286.72;6976531;28;20256;-85
2023/05/15 09:10:22;;;;;;;4.80;4.40;;;;;;;25.53;35.58;98294.97;6978587;28;20234;-85
2023/05/15 09:13:43;;;;;;;4.93;4.53;;;;;;;25.63;36.96;98283.66;6977885;28;20248;-84
2023/05/15 09:17:05;;;;;;;5.27;4.67;;;;;;;25.23;35.92;98212.88;6976593;28;20384;-82
2023/05/15 09:20:30;;;;;;;4.67;4.27;;;;;;;25.89;35.06;98210.06;6977523;28;20208;-85
2023/05/15 09:23:52;;;;;;;4.30;4.00;;;;;;;26.34;34.82;98247.50;6950855;28;20227;-85
2023/05/15 09:27:14;;;;;;;5.43;4.37;;;;;;;26.69;33.91;98282.44;6949671;28;20247;-87
2023/05/15 09:30:37;;;;;;;4.77;3.90;;;;;;;26.86;33.31;98271.41;6955440;28;20234;-84
2023/05/15 09:34:03;;;;;;;4.23;3.93;;;;;;;26.69;33.22;98265.03;6950274;28;20223;-86
2023/05/15 09:37:30;;;;;;;4.27;3.87;;;;;;;26.63;33.63;98266.31;6973948;28;20226;-86
2023/05/15 09:41:01;;;;;;;3.63;3.33;;;;;;;25.61;34.55;98236.22;6977544;28;20195;-84
2023/05/15 09:44:25;;;;;;;3.63;3.33;;;;;;;26.53;33.64;98252.75;6949068;28;20228;-85
2023/05/15 09:47:47;;;;;;;3.77;3.47;;;;;;;26.75;32.67;98255.44;6949218;28;20223;-82
2023/05/15 09:51:14;;;;;;;4.03;3.70;;;;;;;25.52;34.82;98240.88;6949899;28;20223;-83
2023/05/15 09:54:37;;;;;;;4.47;4.07;;;;;;;25.97;34.15;98247.19;6954303;28;20210;-84
2023/05/15 09:58:06;;;;;;;4.53;3.67;;;;;;;25.22;34.35;98251.81;6975466;28;20297;-84
2023/05/15 10:01:27;;;;;;;3.80;3.50;;;;;;;25.75;34.60;98239.72;6970104;28;20582;-84
2023/05/15 10:04:54;;;;;;;3.87;3.50;;;;;;;26.35;33.90;98223.41;6963689;28;20289;-84
2023/05/15 10:08:16;;;;;;;6.77;3.80;;;;;;;25.75;32.83;98245.25;6956878;28;20218;-84
2023/05/15 10:11:42;;;;;;;3.73;3.43;;;;;;;24.79;34.01;98243.16;6974773;28;20368;-83
2023/05/15 10:15:04;;;;;;;4.63;3.60;;;;;;;25.33;34.25;98245.78;6976216;28;20198;-84
2023/05/15 10:18:28;;;;;;;3.60;3.30;;;;;;;25.19;33.40;98241.41;6970656;28;20359;-85
2023/05/15 10:21:50;;;;;;;4.13;3.43;;;;;;;24.68;34.50;98219.72;6954443;28;20268;-85
2023/05/15 10:25:16;;;;;;;3.57;3.27;;;;;;;25.36;34.07;98236.84;6968221;28;20335;-84
2023/05/15 10:28:39;;;;;;;3.47;3.17;;;;;;;25.13;32.96;98223.34;6976008;28;20414;-83
2023/05/15 10:32:01;;;;;;;3.50;3.20;;;;;;;25.14;33.27;98176.13;6973479;28;20311;-85
2023/05/15 10:35:23;;;;;;;3.90;3.60;;;;;;;25.91;33.28;98210.59;6960643;28;20324;-84
2023/05/15 10:38:45;;;;;;;3.60;3.27;;;;;;;26.70;32.77;98191.97;6967514;28;20203;-83
2023/05/15 10:42:08;;;;;;;3.50;3.20;;;;;;;26.00;32.42;98211.44;6979110;28;20601;-83
2023/05/15 10:45:31;;;;;;;3.30;3.03;;;;;;;26.07;31.83;98206.25;6981520;28;20217;-84
2023/05/15 10:48:53;;;;;;;4.43;2.60;;;;;;;26.18;32.49;98202.06;6973030;28;20333;-84
2023/05/15 10:52:15;;;;;;;3.77;3.33;;;;;;;25.36;34.87;98208.47;6972894;28;20313;-84
2023/05/15 10:55:37;;;;;;;3.30;3.10;;;;;;;24.88;34.10;98194.41;7000189;28;20289;-86
2023/05/15 10:59:05;;;;;;;3.17;2.97;;;;;;;24.71;34.63;98201.75;6986987;28;20206;-85
2023/05/15 11:02:30;;;;;;;4.07;3.30;;;;;;;25.38;34.19;98187.69;6977627;28;20747;-86
2023/05/15 11:06:07;;;;;;;5.07;3.23;;;;;;;26.04;33.36;98181.22;6976426;28;20241;-85
2023/05/15 11:09:36;;;;;;;4.27;3.23;;;;;;;26.58;31.37;98189.03;6975707;28;20200;-85
2023/05/15 11:12:58;;;;;;;3.60;3.33;;;;;;;25.97;32.40;98151.31;6954394;28;20322;-85
2023/05/15 11:16:53;;;;;;;3.10;2.90;;;;;;;26.38;32.26;98178.56;6966658;28;20257;-85
2023/05/15 11:20:16;;;;;;;3.40;3.20;;;;;;;26.64;31.02;98160.06;6958126;28;20908;-85
2023/05/15 11:23:41;;;;;;;3.60;2.90;;;;;;;26.95;31.46;98149.69;6972924;28;20289;-85
2023/05/15 11:27:04;;;;;;;3.77;3.00;;;;;;;27.19;29.64;98156.34;6970632;28;20214;-85
2023/05/15 11:30:35;;;;;;;3.90;2.90;;;;;;;27.05;29.10;98150.16;6981022;28;20344;-86
2023/05/15 11:33:57;;;;;;;4.10;3.00;;;;;;;26.53;29.54;98153.19;6980274;28;20203;-84
2023/05/15 11:37:20;;;;;;;3.40;3.10;;;;;;;27.33;28.81;98143.16;6960894;28;20306;-85
2023/05/15 11:40:47;;;;;;;2.97;2.77;;;;;;;28.34;28.05;98146.66;6970555;28;20245;-84
2023/05/15 11:44:09;;;;;;;4.70;3.43;;;;;;;27.78;28.99;98160.94;6979911;28;20202;-85
2023/05/15 11:47:31;;;;;;;3.83;2.63;;;;;;;27.79;28.61;98148.72;6970934;28;20223;-85
2023/05/15 11:50:53;;;;;;;4.23;2.80;;;;;;;26.15;30.25;98143.88;6976182;28;20202;-85
2023/05/15 11:54:16;;;;;;;3.60;2.87;;;;;;;26.87;29.55;98159.59;7006049;28;20288;-85
2023/05/15 11:57:38;;;;;;;4.37;3.20;;;;;;;27.98;27.26;98151.09;6997036;28;20290;-85
2023/05/15 12:00:59;;;;;;;2.80;2.50;;;;;;;27.30;26.92;98109.78;6978119;28;20249;-85
2023/05/15 12:04:21;;;;;;;2.33;2.20;;;;;;;25.86;28.27;98171.19;6968732;28;20671;-85
2023/05/15 12:07:43;;;;;;;2.20;2.10;;;;;;;25.13;29.83;98182.75;6969800;28;20320;-85
2023/05/15 12:11:06;;;;;;;2.87;2.03;;;;;;;23.17;29.99;98178.88;6953059;28;20273;-85
2023/05/15 12:14:28;;;;;;;2.77;2.57;;;;;;;22.99;30.92;98182.44;6988455;28;20204;-86
2023/05/15 12:17:50;;;;;;;3.07;2.10;;;;;;;22.41;31.05;98161.88;6980775;28;20223;-86
2023/05/15 12:21:11;;;;;;;2.60;2.40;;;;;;;23.27;30.13;98176.78;6979911;28;20204;-85
2023/05/15 12:24:35;;;;;;;3.70;2.17;;;;;;;24.05;30.45;98130.69;6978876;28;20228;-86
2023/05/15 12:27:58;;;;;;;2.30;2.17;;;;;;;24.36;29.83;98169.44;6968722;28;20229;-87
2023/05/15 12:31:20;;;;;;;2.83;2.50;;;;;;;23.87;31.95;98166.56;6953736;28;20236;-85
2023/05/15 12:34:42;;;;;;;2.63;2.03;;;;;;;24.85;30.68;98155.63;6978827;28;20679;-85
2023/05/15 12:38:04;;;;;;;2.40;2.30;;;;;;;23.81;32.42;98167.78;6980138;28;20306;-85
2023/05/15 12:41:28;;;;;;;2.67;2.47;;;;;;;23.32;33.06;98165.69;6974698;28;20216;-85
2023/05/15 12:44:52;;;;;;;2.70;2.20;;;;;;;22.51;33.56;98184.56;6951043;28;20544;-85
2023/05/15 12:48:14;;;;;;;2.70;2.50;;;;;;;22.96;33.25;98188.56;6950416;28;20703;-85
2023/05/15 12:51:42;;;;;;;2.10;2.00;;;;;;;22.67;33.11;98194.19;6972302;28;20233;-85
2023/05/15 12:55:04;;;;;;;3.23;2.30;;;;;;;22.83;34.14;98175.56;6978138;28;20343;-85
2023/05/15 12:58:25;;;;;;;3.03;2.73;;;;;;;22.94;34.72;98175.09;6978922;28;20719;-85
2023/05/15 13:01:48;;;;;;;2.70;2.50;;;;;;;23.72;33.19;98164.13;6978123;28;20674;-85
2023/05/15 13:05:10;;;;;;;2.93;2.30;;;;;;;24.01;31.15;98170.19;6978312;28;20316;-85
2023/05/15 13:08:32;;;;;;;2.77;2.57;;;;;;;24.51;30.51;98160.81;6978529;28;20699;-85
2023/05/15 13:11:55;;;;;;;2.40;2.23;;;;;;;25.79;28.45;98162.56;6977701;28;20261;-85
2023/05/15 13:15:25;;;;;;;2.77;2.47;;;;;;;25.05;29.60;98146.84;6977790;28;20296;-84
2023/05/15 13:18:48;;;;;;;3.17;2.80;;;;;;;24.50;31.21;98145.41;6977910;28;20231;-85
2023/05/15 13:22:09;;;;;;;3.63;2.77;;;;;;;24.49;30.22;98143.78;6977251;28;20209;-85
2023/05/15 13:25:31;;;;;;;4.27;2.87;;;;;;;24.78;30.58;98054.03;6977635;28;20234;-86
2023/05/15 13:28:53;;;;;;;7.63;2.93;;;;;;;26.38;29.99;98123.28;6977895;28;20233;-85
2023/05/15 13:32:14;;;;;;;3.23;2.93;;;;;;;26.84;28.66;98121.50;6976854;28;20262;-85
2023/05/15 13:35:38;;;;;;;3.50;3.20;;;;;;;26.25;28.49;98124.22;6977386;28;20229;-86
2023/05/15 13:38:59;;;;;;;3.97;3.30;;;;;;;25.14;31.05;98134.72;6977411;28;20296;-85
2023/05/15 13:42:21;;;;;;;4.73;3.37;;;;;;;25.88;30.49;98119.19;6977329;28;20229;-86
2023/05/15 13:45:42;;;;;;;3.70;3.40;;;;;;;25.94;30.24;98124.31;6977340;28;20257;-85
2023/05/15 13:49:04;;;;;;;3.67;3.17;;;;;;;26.62;29.01;98113.41;6977762;28;20217;-85
2023/05/15 13:52:27;;;;;;;6.37;3.03;;;;;;;26.74;28.81;98118.28;6976729;28;20290;-86
2023/05/15 13:55:48;;;;;;;5.27;2.53;;;;;;;27.63;27.87;98108.84;6977394;28;20257;-83
2023/05/15 13:59:10;;;;;;;3.00;2.80;;;;;;;26.54;28.33;98119.72;6977938;28;20836;-84
2023/05/15 14:02:31;;;;;;;3.13;2.83;;;;;;;26.61;27.59;98070.28;6974054;28;20332;-85
2023/05/15 14:05:53;;;;;;;3.27;2.97;;;;;;;26.93;27.49;98118.75;6977834;28;20261;-87
2023/05/15 14:09:15;;;;;;;3.60;2.97;;;;;;;26.72;27.82;98095.66;6977123;28;20264;-85
2023/05/15 14:12:37;;;;;;;3.50;2.70;;;;;;;27.13;27.19;98123.63;6976466;28;20379;-85
2023/05/15 14:15:59;;;;;;;3.13;2.80;;;;;;;25.86;28.25;98127.84;6976187;28;20363;-85
2023/05/15 14:19:20;;;;;;;4.67;2.77;;;;;;;26.09;27.51;98118.34;6976949;28;20261;-84
2023/05/15 14:22:42;;;;;;;3.17;2.87;;;;;;;26.12;27.46;98130.72;6976230;28;20293;-85
2023/05/15 14:26:05;;;;;;;3.30;3.00;;;;;;;25.35;29.17;98118.50;6976831;28;20316;-85
2023/05/15 14:29:26;;;;;;;3.57;3.20;;;;;;;26.01;27.52;98105.31;6978294;28;20202;-84
2023/05/15 14:32:48;;;;;;;3.30;3.00;;;;;;;24.96;29.21;98127.47;6977864;28;20236;-85
2023/05/15 14:36:09;;;;;;;2.50;2.30;;;;;;;25.98;27.97;98138.28;6977992;28;20275;-84
2023/05/15 14:39:31;;;;;;;2.90;2.37;;;;;;;24.74;28.33;98149.53;6978799;28;20299;-85
2023/05/15 14:42:54;;;;;;;5.97;2.77;;;;;;;24.14;29.41;98139.03;6977532;28;20664;-85
2023/05/15 14:46:16;;;;;;;4.87;3.00;;;;;;;24.91;28.95;98144.16;6978575;28;20370;-84
2023/05/15 14:49:37;;;;;;;2.60;2.40;;;;;;;25.73;28.86;98152.78;6983895;28;20205;-84
2023/05/15 14:52:59;;;;;;;4.33;3.10;;;;;;;25.26;28.74;98159.81;6981398;28;20234;-85
2023/05/15 14:56:21;;;;;;;3.70;3.00;;;;;;;25.45;29.30;98156.88;6977798;28;20323;-84
2023/05/15 14:59:43;;;;;;;3.33;3.03;;;;;;;25.28;28.86;98154.00;6978161;28;20818;-84
2023/05/15 15:03:05;;;;;;;4.57;3.03;;;;;;;25.10;30.19;98155.00;6977911;28;20325;-84
2023/05/15 15:06:26;;;;;;;5.03;2.87;;;;;;;25.74;28.91;98162.69;6977489;28;20231;-85
2023/05/15 15:09:48;;;;;;;3.10;2.80;;;;;;;25.71;28.05;98063.94;6968551;28;20213;-84
2023/05/15 15:13:11;;;;;;;4.73;2.97;;;;;;;25.27;29.56;98167.00;6963455;28;20245;-85
2023/05/15 15:16:34;;;;;;;2.83;2.63;;;;;;;25.52;29.44;98158.06;6975719;28;20239;-85
2023/05/15 15:19:56;;;;;;;3.50;3.20;;;;;;;24.90;31.13;98180.31;6975731;28;20658;-85
2023/05/15 15:23:17;;;;;;;5.03;3.40;;;;;;;23.93;34.70;98179.13;6975763;28;20295;-85
2023/05/15 15:26:39;;;;;;;4.10;3.77;;;;;;;23.23;36.34;98195.00;6976667;28;20366;-85
2023/05/15 15:30:02;;;;;;;7.37;3.93;;;;;;;22.69;37.37;98130.69;6981693;28;20225;-84
2023/05/15 15:33:25;;;;;;;6.27;3.83;;;;;;;22.29;38.79;98178.78;6981089;28;20232;-85
2023/05/15 15:36:47;;;;;;;5.60;4.40;;;;;;;22.10;39.70;98210.91;6983970;28;20315;-85
2023/05/15 15:40:10;;;;;;;5.50;4.07;;;;;;;21.85;41.90;98191.16;6983442;28;20447;-86
2023/05/15 15:43:32;;;;;;;4.33;3.93;;;;;;;22.13;42.36;98224.03;6980439;28;20206;-87
2023/05/15 15:46:53;;;;;;;4.57;3.90;;;;;;;21.77;42.57;98189.06;6970266;28;20358;-85
2023/05/15 15:50:16;;;;;;;3.53;3.17;;;;;;;22.22;41.58;98232.44;6959372;28;20198;-87
2023/05/15 15:53:38;;;;;;;4.00;3.60;;;;;;;22.21;41.51;98233.56;6953138;28;20314;-87
2023/05/15 15:57:00;;;;;;;3.33;3.03;;;;;;;22.28;41.23;98226.59;6968865;28;20223;-85